Time;durP1;ratioP1;P1;durP2;ratioP2;P2;SDS_P1;SDS_P2;PMS_P1;PMS_P2;Temp;Humidity;BMP_temperature;BMP_pressure;BME280_temperature;BME280_humidity;BME280_pressure;Samples;Min_cycle;Max_cycle;Signal;HPM_P1;HPM_P2
2024/04/16 00:01:49;;;;;;;0.40;0.40;;;;;;;6.25;100.00;100120.75;5527761;25;19993;-47
2024/04/16 00:04:14;;;;;;;0.20;0.20;;;;;;;6.25;100.00;100119.91;5527318;25;20364;-48
2024/04/16 00:06:39;;;;;;;0.30;0.30;;;;;;;6.24;100.00;100113.88;5526551;25;19997;-47
2024/04/16 00:09:05;;;;;;;0.30;0.30;;;;;;;6.22;100.00;100104.41;5527501;25;20063;-46
2024/04/16 00:11:30;;;;;;;0.30;0.30;;;;;;;6.14;100.00;100101.59;5527254;25;20071;-47
2024/04/16 00:13:55;;;;;;;0.40;0.40;;;;;;;6.08;100.00;100098.81;5526713;25;20346;-49
2024/04/16 00:16:21;;;;;;;0.30;0.30;;;;;;;6.02;100.00;100101.16;5527090;25;20045;-49
2024/04/16 00:18:46;;;;;;;0.40;0.40;;;;;;;5.98;100.00;100089.94;5527426;25;20066;-50
2024/04/16 00:21:11;;;;;;;0.40;0.40;;;;;;;5.97;100.00;100089.88;5526172;25;19998;-47
2024/04/16 00:23:37;;;;;;;0.20;0.20;;;;;;;5.94;100.00;100088.94;5526825;25;19994;-50
2024/04/16 00:26:02;;;;;;;0.38;0.38;;;;;;;5.88;100.00;100091.25;5527119;25;20453;-48
2024/04/16 00:28:29;;;;;;;0.22;0.22;;;;;;;5.87;100.00;100086.97;5525707;25;20062;-47
2024/04/16 00:30:54;;;;;;;0.38;0.38;;;;;;;5.83;100.00;100090.22;5526900;25;20001;-50
2024/04/16 00:33:19;;;;;;;0.30;0.30;;;;;;;5.81;100.00;100089.31;5525641;25;19994;-47
2024/04/16 00:35:45;;;;;;;0.30;0.30;;;;;;;5.75;100.00;100081.41;5527334;25;20005;-47
2024/04/16 00:38:10;;;;;;;0.30;0.30;;;;;;;5.68;100.00;100076.88;5526834;25;19994;-48
2024/04/16 00:40:35;;;;;;;0.30;0.30;;;;;;;5.60;100.00;100063.81;5525693;25;20004;-49
2024/04/16 00:43:01;;;;;;;0.40;0.40;;;;;;;5.52;100.00;100065.22;5527033;25;19993;-48
2024/04/16 00:45:26;;;;;;;0.40;0.40;;;;;;;5.42;100.00;100057.22;5526744;25;20415;-50
2024/04/16 00:47:52;;;;;;;0.30;0.30;;;;;;;5.44;100.00;100045.34;5525919;25;19997;-48
2024/04/16 00:50:18;;;;;;;0.30;0.30;;;;;;;5.46;100.00;100058.19;5526704;25;19997;-48
2024/04/16 00:52:44;;;;;;;0.40;0.40;;;;;;;5.40;100.00;100046.06;5526540;25;19997;-47
2024/04/16 00:55:10;;;;;;;0.30;0.30;;;;;;;5.34;100.00;100038.16;5526009;25;19993;-48
2024/04/16 00:57:36;;;;;;;0.40;0.40;;;;;;;5.27;100.00;100037.06;5526548;25;20009;-48
2024/04/16 01:00:02;;;;;;;0.40;0.40;;;;;;;5.19;100.00;100032.47;5526731;25;19993;-47
2024/04/16 01:02:27;;;;;;;0.30;0.30;;;;;;;5.12;100.00;100036.47;5525565;25;20019;-48
2024/04/16 01:04:54;;;;;;;0.38;0.38;;;;;;;5.07;100.00;100036.31;5526235;25;20005;-49
2024/04/16 01:07:20;;;;;;;0.30;0.30;;;;;;;5.01;100.00;100043.72;5526451;25;19993;-48
2024/04/16 01:09:45;;;;;;;0.40;0.40;;;;;;;4.95;100.00;100030.72;5525599;25;20003;-51
2024/04/16 01:12:10;;;;;;;0.30;0.30;;;;;;;4.90;100.00;100035.63;5526285;25;20004;-48
2024/04/16 01:14:36;;;;;;;0.30;0.30;;;;;;;4.87;100.00;100017.66;5526199;25;20432;-47
2024/04/16 01:17:01;;;;;;;0.30;0.30;;;;;;;4.81;100.00;100017.41;5525644;26;20004;-51
2024/04/16 01:19:26;;;;;;;0.30;0.30;;;;;;;4.73;100.00;100016.25;5526154;25;20555;-47
2024/04/16 01:21:51;;;;;;;0.30;0.30;;;;;;;4.69;100.00;100012.69;5526054;25;20061;-48
2024/04/16 01:24:17;;;;;;;0.40;0.40;;;;;;;4.67;100.00;100021.09;5525505;25;19997;-49
2024/04/16 01:26:42;;;;;;;0.40;0.40;;;;;;;4.65;100.00;100044.00;5525904;25;19994;-48
2024/04/16 01:29:07;;;;;;;0.30;0.30;;;;;;;4.65;100.00;100030.34;5524936;25;20003;-51
2024/04/16 01:31:33;;;;;;;0.30;0.30;;;;;;;4.59;100.00;100008.88;5523936;25;19993;-51
2024/04/16 01:33:59;;;;;;;0.38;0.38;;;;;;;4.54;100.00;100014.63;5526160;26;20005;-52
2024/04/16 01:36:25;;;;;;;0.30;0.30;;;;;;;4.51;100.00;100015.38;5525769;26;19997;-52
2024/04/16 01:38:51;;;;;;;0.40;0.40;;;;;;;4.49;100.00;100016.13;5525056;26;19994;-51
2024/04/16 01:41:16;;;;;;;0.40;0.40;;;;;;;4.47;100.00;100018.63;5525889;26;19997;-49
2024/04/16 01:43:42;;;;;;;0.30;0.30;;;;;;;4.44;100.00;100037.22;5524722;26;20016;-52
2024/04/16 01:46:07;;;;;;;0.40;0.40;;;;;;;4.40;100.00;100006.41;5525596;26;20004;-51
2024/04/16 01:48:33;;;;;;;0.30;0.30;;;;;;;4.38;100.00;99995.28;5525518;26;19998;-51
2024/04/16 01:50:58;;;;;;;0.25;0.25;;;;;;;4.34;100.00;99985.72;5524996;26;19997;-50
2024/04/16 01:53:23;;;;;;;0.30;0.30;;;;;;;4.33;100.00;100001.88;5525655;26;20398;-51
2024/04/16 01:55:49;;;;;;;0.30;0.30;;;;;;;4.31;100.00;100001.78;5525821;26;19997;-51
2024/04/16 01:58:14;;;;;;;0.30;0.30;;;;;;;4.34;100.00;100001.03;5524797;26;20334;-52
2024/04/16 02:00:40;;;;;;;0.38;0.38;;;;;;;4.28;100.00;99997.44;5525297;26;19997;-52
2024/04/16 02:03:05;;;;;;;0.40;0.40;;;;;;;4.27;100.00;99993.16;5525210;26;19997;-53
2024/04/16 02:05:30;;;;;;;0.30;0.30;;;;;;;4.28;100.00;99994.88;5524514;26;20008;-51
2024/04/16 02:07:56;;;;;;;0.40;0.40;;;;;;;4.29;100.00;99993.22;5525628;26;20008;-50
2024/04/16 02:10:21;;;;;;;0.40;0.40;;;;;;;4.29;100.00;99994.06;5525032;26;20069;-51
2024/04/16 02:12:46;;;;;;;0.30;0.30;;;;;;;4.27;100.00;99998.25;5524531;26;19997;-51
2024/04/16 02:15:12;;;;;;;0.40;0.40;;;;;;;4.29;100.00;99988.97;5525222;26;20064;-51
2024/04/16 02:17:40;;;;;;;0.38;0.38;;;;;;;4.25;100.00;99987.13;5525180;26;20343;-52
2024/04/16 02:20:07;;;;;;;0.40;0.40;;;;;;;4.22;100.00;99981.91;5524382;26;20421;-51
2024/04/16 02:22:32;;;;;;;0.40;0.40;;;;;;;4.19;100.00;99970.69;5524785;26;20017;-51
2024/04/16 02:24:57;;;;;;;0.30;0.30;;;;;;;4.14;100.00;99970.50;5525360;26;20009;-51
2024/04/16 02:27:23;;;;;;;0.40;0.40;;;;;;;4.12;100.00;99964.47;5523605;26;20487;-50
2024/04/16 02:29:48;;;;;;;0.40;0.40;;;;;;;4.08;100.00;99966.03;5525338;26;19993;-51
2024/04/16 02:32:13;;;;;;;0.40;0.40;;;;;;;4.05;100.00;99967.56;5525118;26;20001;-51
2024/04/16 02:34:39;;;;;;;0.40;0.40;;;;;;;4.02;100.00;99952.16;5523695;26;20004;-50
2024/04/16 02:37:04;;;;;;;0.30;0.30;;;;;;;4.02;100.00;99953.00;5524615;26;20077;-51
2024/04/16 02:39:29;;;;;;;0.30;0.30;;;;;;;4.03;100.00;99956.41;5524798;26;19997;-50
2024/04/16 02:41:55;;;;;;;0.40;0.40;;;;;;;4.05;100.00;99962.47;5525794;26;19998;-50
2024/04/16 02:44:20;;;;;;;0.40;0.40;;;;;;;4.05;100.00;99962.47;5528117;26;20001;-48
2024/04/16 02:46:45;;;;;;;0.40;0.40;;;;;;;4.05;100.00;99977.75;5528603;26;19994;-51
2024/04/16 02:49:10;;;;;;;0.40;0.40;;;;;;;4.03;100.00;99970.06;5527761;26;20010;-51
2024/04/16 02:51:36;;;;;;;0.40;0.40;;;;;;;4.05;100.00;99975.22;5528268;26;19997;-50
2024/04/16 02:54:01;;;;;;;0.40;0.40;;;;;;;4.03;100.00;99971.72;5527476;26;19997;-50
2024/04/16 02:56:26;;;;;;;0.30;0.30;;;;;;;4.03;100.00;99987.00;5528139;26;20007;-49
2024/04/16 02:58:51;;;;;;;0.40;0.40;;;;;;;3.94;100.00;99980.72;5528335;26;20009;-49
2024/04/16 03:01:17;;;;;;;0.30;0.30;;;;;;;3.91;100.00;99969.53;5527138;26;20029;-50
2024/04/16 03:03:42;;;;;;;0.30;0.30;;;;;;;3.91;100.00;99979.72;5527815;26;19994;-50
2024/04/16 03:06:07;;;;;;;0.30;0.30;;;;;;;3.92;100.00;99972.13;5528170;26;20370;-51
2024/04/16 03:08:33;;;;;;;0.40;0.40;;;;;;;3.93;100.00;99961.13;5526949;26;20005;-49
2024/04/16 03:11:00;;;;;;;0.40;0.40;;;;;;;3.95;100.00;99957.00;5528311;26;20478;-50
2024/04/16 03:13:25;;;;;;;0.40;0.40;;;;;;;3.94;100.00;99934.84;5527842;26;20033;-51
2024/04/16 03:15:50;;;;;;;0.40;0.40;;;;;;;3.99;100.00;99947.78;5527124;26;19993;-51
2024/04/16 03:18:16;;;;;;;0.40;0.40;;;;;;;4.02;100.00;99944.50;5527820;26;19994;-51
2024/04/16 03:20:41;;;;;;;0.30;0.30;;;;;;;4.05;100.00;99952.25;5528006;26;19993;-51
2024/04/16 03:23:06;;;;;;;0.32;0.32;;;;;;;4.07;100.00;99948.13;5526962;26;20005;-50
2024/04/16 03:25:31;;;;;;;0.30;0.30;;;;;;;4.09;100.00;99938.81;5527565;26;20004;-52
2024/04/16 03:27:57;;;;;;;0.30;0.30;;;;;;;4.12;100.00;99928.78;5527610;26;20333;-50
2024/04/16 03:30:22;;;;;;;0.30;0.30;;;;;;;4.18;100.00;99936.66;5526559;26;20064;-51
2024/04/16 03:32:47;;;;;;;0.40;0.40;;;;;;;4.19;100.00;99933.28;5528044;26;20329;-49
2024/04/16 03:35:12;;;;;;;0.30;0.30;;;;;;;4.19;100.00;99929.88;5527843;26;20069;-51
2024/04/16 03:37:38;;;;;;;0.40;0.40;;;;;;;4.17;100.00;99921.28;5526533;26;20442;-51
2024/04/16 03:40:05;;;;;;;0.40;0.40;;;;;;;4.16;100.00;99919.53;5527358;26;19993;-48
2024/04/16 03:42:30;;;;;;;0.30;0.30;;;;;;;4.12;100.00;99908.38;5527219;26;20469;-50
2024/04/16 03:44:55;;;;;;;0.40;0.40;;;;;;;4.10;100.00;99907.44;5526778;26;20008;-52
2024/04/16 03:47:21;;;;;;;0.30;0.30;;;;;;;4.08;100.00;99906.47;5527157;26;19998;-47
2024/04/16 03:49:47;;;;;;;0.30;0.30;;;;;;;4.06;100.00;99903.00;5527582;26;20425;-47
2024/04/16 03:52:12;;;;;;;0.30;0.30;;;;;;;4.06;100.00;99898.78;5526153;26;20441;-51
2024/04/16 03:54:37;;;;;;;0.30;0.30;;;;;;;4.08;100.00;99899.72;5527294;26;20005;-49
2024/04/16 03:57:03;;;;;;;0.30;0.30;;;;;;;4.04;100.00;99890.22;5527357;26;19993;-51
2024/04/16 03:59:38;;;;;;;0.40;0.40;;;;;;;4.05;100.00;99891.06;5526427;26;19997;-50
2024/04/16 04:02:04;;;;;;;0.30;0.30;;;;;;;4.03;100.00;99883.38;5527164;26;19998;-47
2024/04/16 04:04:30;;;;;;;0.40;0.40;;;;;;;4.04;100.00;99886.78;5526060;26;20037;-50
2024/04/16 04:06:55;;;;;;;0.40;0.40;;;;;;;4.06;100.00;99872.41;5527518;26;20024;-48
2024/04/16 04:09:20;;;;;;;0.40;0.40;;;;;;;4.08;100.00;99875.88;5526756;26;20301;-49
2024/04/16 04:11:45;;;;;;;0.40;0.40;;;;;;;4.08;100.00;99863.13;5526436;26;20432;-49
2024/04/16 04:14:11;;;;;;;0.30;0.30;;;;;;;4.10;100.00;99864.06;5527155;26;20441;-50
2024/04/16 04:16:36;;;;;;;0.40;0.40;;;;;;;4.08;100.00;99874.22;5526907;26;20453;-48
2024/04/16 04:19:01;;;;;;;0.30;0.30;;;;;;;4.09;100.00;99873.41;5526321;26;20027;-51
2024/04/16 04:21:27;;;;;;;0.30;0.30;;;;;;;4.11;100.00;99850.53;5526784;26;19997;-51
2024/04/16 04:23:52;;;;;;;0.40;0.40;;;;;;;4.10;100.00;99848.78;5526940;26;20020;-47
2024/04/16 04:26:18;;;;;;;0.30;0.30;;;;;;;4.10;100.00;99841.13;5525973;26;20005;-49
2024/04/16 04:28:43;;;;;;;0.38;0.38;;;;;;;4.10;100.00;99833.47;5526893;26;20328;-51
2024/04/16 04:31:19;;;;;;;0.30;0.30;;;;;;;4.12;100.00;99842.06;5526844;26;19997;-52
2024/04/16 04:33:45;;;;;;;0.30;0.30;;;;;;;4.12;100.00;99850.56;5526324;26;20027;-50
2024/04/16 04:36:14;;;;;;;0.40;0.40;;;;;;;4.13;100.00;99856.53;5526795;26;20033;-51
2024/04/16 04:38:39;;;;;;;0.40;0.40;;;;;;;4.13;100.00;99843.78;5526954;26;20390;-51
2024/04/16 04:41:05;;;;;;;0.28;0.28;;;;;;;4.15;100.00;99836.22;5525759;26;20421;-48
2024/04/16 04:43:31;;;;;;;0.30;0.30;;;;;;;4.14;100.00;99830.22;5526313;26;20008;-48
2024/04/16 04:45:56;;;;;;;0.35;0.35;;;;;;;4.15;100.00;99842.19;5526910;26;20008;-50
2024/04/16 04:48:21;;;;;;;0.30;0.30;;;;;;;4.18;100.00;99829.53;5525485;26;19994;-51
2024/04/16 04:50:46;;;;;;;0.45;0.45;;;;;;;4.17;100.00;99830.38;5526883;26;20038;-51
2024/04/16 04:53:12;;;;;;;0.38;0.38;;;;;;;4.20;100.00;99840.69;5526369;26;19997;-48
2024/04/16 04:55:37;;;;;;;0.30;0.30;;;;;;;4.21;100.00;99834.78;5525586;26;19997;-50
2024/04/16 04:58:02;;;;;;;0.30;0.30;;;;;;;4.22;100.00;99836.53;5526627;26;20004;-51
2024/04/16 05:00:28;;;;;;;0.30;0.30;;;;;;;4.23;100.00;99830.59;5525848;26;19998;-47
2024/04/16 05:02:53;;;;;;;0.32;0.32;;;;;;;4.23;100.00;99838.22;5525517;26;20038;-48
2024/04/16 05:05:18;;;;;;;0.40;0.40;;;;;;;4.24;100.00;99832.31;5524933;26;20337;-51
2024/04/16 05:07:44;;;;;;;0.40;0.40;;;;;;;4.29;100.00;99827.41;5525371;26;19998;-51
2024/04/16 05:10:09;;;;;;;0.40;0.40;;;;;;;4.29;100.00;99809.56;5526141;26;20007;-51
2024/04/16 05:12:35;;;;;;;0.30;0.30;;;;;;;4.30;100.00;99821.50;5526174;26;20004;-48
2024/04/16 05:15:00;;;;;;;0.30;0.30;;;;;;;4.31;100.00;99822.38;5525478;26;19997;-49
2024/04/16 05:17:26;;;;;;;0.30;0.30;;;;;;;4.34;100.00;99807.16;5525865;26;20005;-51
2024/04/16 05:19:52;;;;;;;0.40;0.40;;;;;;;4.35;100.00;99798.72;5526167;26;20004;-51
2024/04/16 05:22:18;;;;;;;0.38;0.38;;;;;;;4.31;100.00;99797.72;5525167;26;20010;-49
2024/04/16 05:24:44;;;;;;;0.40;0.40;;;;;;;4.31;100.00;99794.31;5526146;26;20006;-52
2024/04/16 05:27:09;;;;;;;0.40;0.40;;;;;;;4.29;100.00;99779.81;5525913;26;19997;-52
2024/04/16 05:29:34;;;;;;;0.30;0.30;;;;;;;4.28;100.00;99787.41;5525157;26;19993;-48
2024/04/16 05:32:00;;;;;;;0.40;0.40;;;;;;;4.29;100.00;99790.00;5526091;26;19997;-51
2024/04/16 05:34:25;;;;;;;0.40;0.40;;;;;;;4.27;100.00;99776.34;5525908;26;20425;-51
2024/04/16 05:36:50;;;;;;;0.40;0.40;;;;;;;4.29;100.00;99764.50;5525155;26;20008;-52
2024/04/16 05:39:15;;;;;;;0.40;0.40;;;;;;;4.28;100.00;99770.41;5525719;26;20497;-52
2024/04/16 05:41:41;;;;;;;0.35;0.35;;;;;;;4.27;100.00;99763.59;5525627;26;20004;-49
2024/04/16 05:44:06;;;;;;;0.40;0.40;;;;;;;4.28;100.00;99755.09;5524670;26;20386;-48
2024/04/16 05:46:31;;;;;;;0.40;0.40;;;;;;;4.31;100.00;99756.91;5525307;26;20507;-52
2024/04/16 05:48:58;;;;;;;0.40;0.40;;;;;;;4.32;100.00;99742.50;5525629;26;19997;-49
2024/04/16 05:51:23;;;;;;;0.40;0.40;;;;;;;4.34;100.00;99758.69;5524740;26;19994;-52
2024/04/16 05:53:49;;;;;;;0.38;0.38;;;;;;;4.36;100.00;99765.59;5525577;26;20046;-52
2024/04/16 05:56:14;;;;;;;0.40;0.40;;;;;;;4.40;100.00;99770.03;5525409;26;20463;-50
2024/04/16 05:58:39;;;;;;;0.40;0.40;;;;;;;4.45;100.00;99765.97;5524866;26;20321;-48
2024/04/16 06:01:06;;;;;;;0.30;0.30;;;;;;;4.51;100.00;99770.41;5525259;26;20517;-49
2024/04/16 06:03:31;;;;;;;0.30;0.30;;;;;;;4.54;100.00;99770.50;5524955;26;19997;-52
2024/04/16 06:05:56;;;;;;;0.30;0.30;;;;;;;4.63;100.00;99776.78;5524763;26;20009;-51
2024/04/16 06:08:22;;;;;;;0.40;0.40;;;;;;;4.70;100.00;99776.16;5525172;26;19997;-52
2024/04/16 06:10:47;;;;;;;0.40;0.40;;;;;;;4.77;100.00;99779.00;5525258;26;19993;-52
2024/04/16 06:13:12;;;;;;;0.40;0.40;;;;;;;4.85;100.00;99788.63;5524219;26;19993;-50
2024/04/16 06:15:37;;;;;;;0.35;0.35;;;;;;;4.89;100.00;99783.69;5525901;26;20011;-48
2024/04/16 06:18:09;;;;;;;0.38;0.38;;;;;;;4.94;100.00;99777.06;5527969;26;20002;-49
2024/04/16 06:20:34;;;;;;;0.40;0.40;;;;;;;5.01;100.00;99782.34;5528710;26;19994;-52
2024/04/16 06:23:00;;;;;;;0.30;0.30;;;;;;;5.09;100.00;99786.06;5528368;26;19997;-49
2024/04/16 06:25:25;;;;;;;0.30;0.30;;;;;;;5.19;100.00;99783.00;5527557;26;20009;-49
2024/04/16 06:27:51;;;;;;;0.40;0.40;;;;;;;5.30;100.00;99780.81;5528848;26;19993;-51
2024/04/16 06:30:16;;;;;;;0.35;0.35;;;;;;;5.40;100.00;99785.41;5528612;26;20045;-52
2024/04/16 06:32:42;;;;;;;0.40;0.40;;;;;;;5.52;100.00;99791.75;5527515;26;20416;-51
2024/04/16 06:35:07;;;;;;;0.32;0.32;;;;;;;5.63;100.00;99789.53;5528522;26;20069;-52
2024/04/16 06:37:32;;;;;;;0.40;0.40;;;;;;;5.73;100.00;99791.56;5528551;26;19998;-48
2024/04/16 06:39:58;;;;;;;0.30;0.30;;;;;;;5.87;100.00;99785.19;5527617;26;19994;-50
2024/04/16 06:42:23;;;;;;;0.40;0.40;;;;;;;6.01;100.00;99788.22;5527570;26;20380;-50
2024/04/16 06:44:48;;;;;;;0.40;0.40;;;;;;;6.11;100.00;99784.28;5527802;26;20004;-49
2024/04/16 06:47:14;;;;;;;0.30;0.30;;;;;;;6.24;100.00;99791.47;5526860;26;19994;-48
2024/04/16 06:49:39;;;;;;;0.40;0.40;;;;;;;6.35;100.00;99788.38;5528312;26;20409;-51
2024/04/16 06:52:04;;;;;;;0.30;0.30;;;;;;;6.47;100.00;99793.88;5528147;26;20008;-49
2024/04/16 06:54:30;;;;;;;0.40;0.40;;;;;;;6.52;100.00;99794.88;5527581;26;20433;-51
2024/04/16 06:56:55;;;;;;;0.40;0.40;;;;;;;6.57;100.00;99801.00;5528186;26;19998;-52
2024/04/16 06:59:20;;;;;;;0.30;0.30;;;;;;;6.65;100.00;99803.78;5527813;26;20330;-55
2024/04/16 07:01:45;;;;;;;0.30;0.30;;;;;;;6.75;100.00;99804.88;5527509;26;19993;-52
2024/04/16 07:04:11;;;;;;;0.30;0.30;;;;;;;6.86;100.00;99793.25;5528069;26;19994;-52
2024/04/16 07:06:36;;;;;;;0.30;0.30;;;;;;;6.95;100.00;99810.56;5528110;26;19994;-52
2024/04/16 07:09:01;;;;;;;0.30;0.30;;;;;;;7.10;100.00;99820.34;5527200;26;20005;-53
2024/04/16 07:11:27;;;;;;;0.32;0.32;;;;;;;7.33;100.00;99825.22;5527830;26;20005;-52
2024/04/16 07:13:52;;;;;;;0.40;0.40;;;;;;;7.43;100.00;99827.22;5528080;26;20008;-52
2024/04/16 07:16:17;;;;;;;0.30;0.30;;;;;;;7.52;100.00;99821.47;5527076;26;20005;-52
2024/04/16 07:18:42;;;;;;;0.30;0.30;;;;;;;7.62;100.00;99830.22;5527663;26;19993;-51
2024/04/16 07:21:08;;;;;;;0.40;0.40;;;;;;;7.81;100.00;99837.56;5528009;26;20008;-48
2024/04/16 07:23:34;;;;;;;0.40;0.40;;;;;;;7.84;100.00;99831.66;5526941;26;20038;-49
2024/04/16 07:25:59;;;;;;;0.28;0.28;;;;;;;7.74;100.00;99843.38;5527705;26;20004;-48
2024/04/16 07:28:24;;;;;;;0.30;0.30;;;;;;;7.64;100.00;99838.84;5525620;26;19993;-48
2024/04/16 07:30:50;;;;;;;0.30;0.30;;;;;;;7.69;100.00;99852.66;5527829;26;20001;-48
2024/04/16 07:33:15;;;;;;;0.30;0.30;;;;;;;7.75;100.00;99855.38;5527479;26;19997;-48
2024/04/16 07:35:45;;;;;;;0.30;0.30;;;;;;;7.93;100.00;99854.97;5526559;26;20009;-48
2024/04/16 07:38:11;;;;;;;0.30;0.30;;;;;;;7.99;100.00;99859.34;5527781;26;20065;-49
2024/04/16 07:40:37;;;;;;;0.20;0.20;;;;;;;8.03;100.00;99851.78;5527395;26;20029;-48
2024/04/16 07:43:02;;;;;;;0.28;0.28;;;;;;;8.06;100.00;99856.13;5526800;26;19993;-51
2024/04/16 07:45:27;;;;;;;0.40;0.40;;;;;;;8.18;100.00;99861.53;5527312;26;20004;-48
2024/04/16 07:47:53;;;;;;;0.30;0.30;;;;;;;8.32;100.00;99863.56;5527606;26;20429;-52
2024/04/16 07:50:18;;;;;;;0.30;0.30;;;;;;;8.36;100.00;99866.22;5526838;26;20429;-48
2024/04/16 07:52:43;;;;;;;0.20;0.20;;;;;;;8.40;100.00;99862.03;5527070;26;19993;-51
2024/04/16 07:55:08;;;;;;;0.10;0.10;;;;;;;8.42;100.00;99865.50;5527455;26;19993;-50
2024/04/16 07:57:34;;;;;;;0.20;0.20;;;;;;;8.44;100.00;99866.38;5526300;26;20084;-51
2024/04/16 07:59:59;;;;;;;0.30;0.30;;;;;;;8.38;100.00;99868.84;5527252;26;20455;-49
2024/04/16 08:02:26;;;;;;;0.30;0.30;;;;;;;8.27;100.00;99881.41;5526680;26;20001;-52
2024/04/16 08:04:51;;;;;;;0.30;0.30;;;;;;;8.12;100.00;99894.78;5526389;26;20061;-52
2024/04/16 08:07:16;;;;;;;0.30;0.30;;;;;;;7.99;100.00;99900.41;5527081;26;20005;-51
2024/04/16 08:09:43;;;;;;;0.30;0.30;;;;;;;7.88;100.00;99892.47;5526377;26;20008;-48
2024/04/16 08:12:08;;;;;;;0.30;0.30;;;;;;;7.80;100.00;99909.34;5526566;26;19998;-49
2024/04/16 08:14:33;;;;;;;0.30;0.30;;;;;;;7.68;100.00;99915.03;5526790;26;20004;-51
2024/04/16 08:16:59;;;;;;;0.30;0.30;;;;;;;7.59;100.00;99923.34;5526951;26;19993;-49
2024/04/16 08:19:24;;;;;;;0.22;0.22;;;;;;;7.52;100.00;99916.31;5525746;26;20425;-51
2024/04/16 08:21:50;;;;;;;0.20;0.20;;;;;;;7.55;100.00;99913.81;5527043;26;19993;-48
2024/04/16 08:24:16;;;;;;;0.30;0.30;;;;;;;7.68;100.00;99915.03;5527212;26;19997;-50
2024/04/16 08:26:41;;;;;;;0.30;0.30;;;;;;;7.96;100.00;99908.03;5525743;26;20329;-48
2024/04/16 08:29:06;;;;;;;0.30;0.30;;;;;;;8.24;100.00;99923.28;5526748;26;19997;-49
2024/04/16 08:31:32;;;;;;;0.30;0.30;;;;;;;8.41;100.00;99915.97;5525826;26;19997;-52
2024/04/16 08:33:58;;;;;;;0.30;0.30;;;;;;;8.52;100.00;99929.13;5527173;26;19997;-49
2024/04/16 08:36:24;;;;;;;0.20;0.20;;;;;;;8.53;100.00;99928.28;5526794;26;20001;-51
2024/04/16 08:38:49;;;;;;;0.30;0.30;;;;;;;8.49;100.00;99944.44;5526190;26;20023;-49
2024/04/16 08:41:14;;;;;;;0.30;0.30;;;;;;;8.56;100.00;99936.06;5526073;26;19998;-48
2024/04/16 08:43:40;;;;;;;0.30;0.30;;;;;;;8.76;100.00;99953.59;5526376;26;19998;-48
2024/04/16 08:46:06;;;;;;;0.30;0.30;;;;;;;8.83;100.00;99940.06;5525589;26;19998;-48
2024/04/16 08:48:34;;;;;;;0.32;0.32;;;;;;;8.96;100.00;99942.91;5526445;26;19993;-49
2024/04/16 08:51:00;;;;;;;0.30;0.30;;;;;;;9.00;100.00;99944.69;5526787;26;20004;-50
2024/04/16 08:53:26;;;;;;;0.25;0.25;;;;;;;9.18;100.00;99942.53;5525072;26;19997;-49
2024/04/16 08:55:52;;;;;;;0.30;0.30;;;;;;;9.18;100.00;99957.94;5526455;26;19993;-49
2024/04/16 08:58:17;;;;;;;0.30;0.30;;;;;;;9.26;100.00;99968.41;5526749;26;19994;-49
2024/04/16 09:00:43;;;;;;;0.20;0.20;;;;;;;9.48;100.00;99974.84;5525707;26;20309;-52
2024/04/16 09:03:09;;;;;;;0.30;0.30;;;;;;;9.85;100.00;99972.97;5526050;26;20009;-50
2024/04/16 09:05:34;;;;;;;0.22;0.22;;;;;;;10.19;100.00;99971.00;5525990;26;20194;-48
2024/04/16 09:08:00;;;;;;;0.30;0.30;;;;;;;10.11;100.00;99987.13;5525203;26;20445;-52
2024/04/16 09:10:25;;;;;;;0.30;0.30;;;;;;;9.91;100.00;99985.06;5526004;26;20006;-51
2024/04/16 09:12:51;;;;;;;0.30;0.30;;;;;;;9.88;100.00;99990.19;5526378;26;19993;-52
2024/04/16 09:15:18;;;;;;;0.20;0.20;;;;;;;10.00;100.00;99989.53;5525032;26;20310;-48
2024/04/16 09:17:50;;;;;;;0.20;0.20;;;;;;;9.94;100.00;99999.72;5526120;26;20005;-48
2024/04/16 09:20:19;;;;;;;0.20;0.20;;;;;;;10.32;100.00;100000.38;5526380;26;20009;-51
2024/04/16 09:22:49;;;;;;;0.30;0.30;;;;;;;10.32;100.00;100009.84;5525373;26;19994;-51
2024/04/16 09:25:16;;;;;;;0.20;0.20;;;;;;;10.38;100.00;99994.53;5525953;26;20340;-49
2024/04/16 09:27:41;;;;;;;0.20;0.20;;;;;;;10.43;100.00;100026.38;5525314;26;20005;-52
2024/04/16 09:30:10;;;;;;;0.22;0.22;;;;;;;10.27;100.00;100026.91;5525384;26;19997;-48
2024/04/16 09:32:36;;;;;;;0.15;0.15;;;;;;;9.82;100.00;100032.09;5525632;26;20008;-49
2024/04/16 09:35:02;;;;;;;0.20;0.20;;;;;;;9.55;100.00;100023.00;5524738;26;20012;-50
2024/04/16 09:37:27;;;;;;;0.20;0.20;;;;;;;9.63;100.00;100027.44;5525494;26;20421;-49
2024/04/16 09:39:53;;;;;;;0.20;0.20;;;;;;;9.89;100.00;100031.38;5526055;26;19994;-52
2024/04/16 09:42:22;;;;;;;0.30;0.30;;;;;;;10.17;100.00;100031.03;5525124;26;20345;-49
2024/04/16 09:44:49;;;;;;;0.20;0.20;;;;;;;10.29;100.00;100035.53;5525874;26;20005;-49
2024/04/16 09:47:17;;;;;;;0.20;0.20;;;;;;;10.21;100.00;100040.53;5525500;26;19997;-49
2024/04/16 09:49:43;;;;;;;0.30;0.30;;;;;;;10.26;100.00;100061.22;5524109;26;20065;-48
2024/04/16 09:52:11;;;;;;;0.20;0.20;;;;;;;10.16;100.00;100053.34;5525469;26;19993;-52
2024/04/16 09:54:38;;;;;;;0.20;0.20;;;;;;;10.04;100.00;100063.41;5525255;26;20065;-51
2024/04/16 09:57:04;;;;;;;0.20;0.20;;;;;;;9.84;100.00;100071.59;5524467;26;20004;-52
2024/04/16 09:59:32;;;;;;;0.28;0.28;;;;;;;9.57;100.00;100082.19;5525236;26;20005;-51
2024/04/16 10:01:58;;;;;;;;;;;;;;;9.79;100.00;100072.38;5525852;26;20001;-51
2024/04/16 10:04:24;;;;;;;0.30;0.30;;;;;;;9.31;100.00;100076.47;5523849;26;19924;-50
2024/04/16 10:06:50;;;;;;;0.17;0.17;;;;;;;9.14;100.00;100066.69;5525317;26;19989;-49
2024/04/16 10:09:17;;;;;;;0.20;0.20;;;;;;;8.96;100.00;100086.81;5525460;26;20000;-51
2024/04/16 10:11:47;;;;;;;0.30;0.30;;;;;;;8.83;100.00;100099.38;5524105;26;20337;-52
2024/04/16 10:14:13;;;;;;;0.20;0.20;;;;;;;8.66;100.00;100104.09;5525284;26;19990;-50
2024/04/16 10:16:40;;;;;;;0.20;0.20;;;;;;;8.48;100.00;100130.19;5524729;26;20005;-49
2024/04/16 10:19:06;;;;;;;0.30;0.30;;;;;;;8.37;100.00;100123.84;5524550;26;19990;-48
2024/04/16 10:21:38;;;;;;;0.30;0.30;;;;;;;8.04;100.00;100124.66;5524903;26;20001;-49
2024/04/16 10:24:11;;;;;;;0.20;0.20;;;;;;;7.72;100.00;100133.16;5524214;26;20001;-52
2024/04/16 10:26:41;;;;;;;0.20;0.20;;;;;;;7.54;100.00;100128.38;5524847;26;19993;-51
2024/04/16 10:29:25;;;;;;;0.30;0.30;;;;;;;7.49;100.00;100144.41;5524651;26;20001;-52
2024/04/16 10:31:52;;;;;;;0.40;0.40;;;;;;;7.48;100.00;100141.00;5524370;26;19993;-51
2024/04/16 10:34:22;;;;;;;0.30;0.30;;;;;;;7.52;100.00;100147.94;5524776;26;20321;-49
2024/04/16 10:36:49;;;;;;;0.30;0.30;;;;;;;7.69;100.00;100152.72;5524853;26;20013;-49
2024/04/16 10:39:16;;;;;;;0.30;0.30;;;;;;;7.80;100.00;100161.63;5523492;26;20366;-50
2024/04/16 10:41:52;;;;;;;0.30;0.30;;;;;;;7.88;100.00;100164.41;5524259;26;20066;-51
2024/04/16 10:44:18;;;;;;;0.30;0.30;;;;;;;8.18;100.00;100159.28;5524543;26;20441;-50
2024/04/16 10:46:44;;;;;;;0.25;0.25;;;;;;;9.21;100.00;100160.25;5523270;26;20034;-51
2024/04/16 10:49:11;;;;;;;0.28;0.28;;;;;;;9.40;100.00;100164.16;5524674;26;19997;-51
2024/04/16 10:51:37;;;;;;;0.22;0.22;;;;;;;9.34;100.00;100153.72;5524267;26;20429;-51
2024/04/16 10:54:09;;;;;;;0.30;0.30;;;;;;;9.47;100.00;100165.16;5523587;26;20004;-52
2024/04/16 10:56:38;;;;;;;0.30;0.30;;;;;;;9.63;100.00;100162.09;5524205;26;20029;-51
2024/04/16 10:59:07;;;;;;;0.30;0.30;;;;;;;9.80;100.00;100165.03;5524683;26;20005;-52
2024/04/16 11:01:33;;;;;;;0.20;0.20;;;;;;;9.91;100.00;100161.81;5523536;26;20004;-51
2024/04/16 11:04:18;;;;;;;0.30;0.30;;;;;;;10.69;100.00;100165.97;5527816;26;19994;-50
2024/04/16 11:06:45;;;;;;;0.25;0.25;;;;;;;11.26;100.00;100178.06;5526870;26;19993;-51
2024/04/16 11:09:12;;;;;;;0.20;0.20;;;;;;;11.41;100.00;100180.03;5528186;26;20077;-52
2024/04/16 11:11:38;;;;;;;0.20;0.20;;;;;;;11.22;100.00;100182.34;5527934;26;19994;-51
2024/04/16 11:14:05;;;;;;;0.20;0.20;;;;;;;11.10;100.00;100182.13;5527411;26;20004;-48
2024/04/16 11:16:30;;;;;;;0.20;0.20;;;;;;;11.05;100.00;100182.03;5527973;26;19994;-52
2024/04/16 11:18:56;;;;;;;0.20;0.20;;;;;;;11.13;100.00;100187.31;5528165;26;20498;-52
2024/04/16 11:21:22;;;;;;;0.20;0.20;;;;;;;11.01;100.00;100193.16;5526521;26;19997;-51
2024/04/16 11:23:48;;;;;;;0.20;0.20;;;;;;;10.94;100.00;100191.31;5528312;26;20025;-52